sensor_id;sensor_type;location;lat;lon;timestamp;P1;durP1;ratioP1;P2;durP2;ratioP2
6037;SDS011;3047;42.600;23.470;2022-12-05T00:00:15;1.27;;;1.27;;
6037;SDS011;3047;42.600;23.470;2022-12-05T00:02:42;0.87;;;0.87;;
6037;SDS011;3047;42.600;23.470;2022-12-05T00:05:09;0.60;;;0.60;;
6037;SDS011;3047;42.600;23.470;2022-12-05T00:07:37;1.67;;;1.67;;
6037;SDS011;3047;42.600;23.470;2022-12-05T00:10:05;1.07;;;1.03;;
6037;SDS011;3047;42.600;23.470;2022-12-05T00:12:32;0.60;;;0.60;;
6037;SDS011;3047;42.600;23.470;2022-12-05T00:15:00;0.70;;;0.70;;
6037;SDS011;3047;42.600;23.470;2022-12-05T00:17:27;1.20;;;1.10;;
6037;SDS011;3047;42.600;23.470;2022-12-05T00:19:54;0.37;;;0.37;;
6037;SDS011;3047;42.600;23.470;2022-12-05T00:22:21;1.27;;;0.43;;
6037;SDS011;3047;42.600;23.470;2022-12-05T00:24:47;0.20;;;0.20;;
6037;SDS011;3047;42.600;23.470;2022-12-05T00:27:14;0.50;;;0.50;;
6037;SDS011;3047;42.600;23.470;2022-12-05T00:29:41;0.60;;;0.60;;
6037;SDS011;3047;42.600;23.470;2022-12-05T00:32:09;0.60;;;0.60;;
6037;SDS011;3047;42.600;23.470;2022-12-05T00:34:36;0.80;;;0.80;;
6037;SDS011;3047;42.600;23.470;2022-12-05T00:37:02;0.53;;;0.53;;
6037;SDS011;3047;42.600;23.470;2022-12-05T00:39:29;0.77;;;0.77;;
6037;SDS011;3047;42.600;23.470;2022-12-05T00:41:56;0.70;;;0.70;;
6037;SDS011;3047;42.600;23.470;2022-12-05T00:44:23;0.50;;;0.50;;
6037;SDS011;3047;42.600;23.470;2022-12-05T00:46:49;0.77;;;0.60;;
6037;SDS011;3047;42.600;23.470;2022-12-05T00:49:18;1.10;;;0.77;;
6037;SDS011;3047;42.600;23.470;2022-12-05T00:51:44;0.80;;;0.80;;
6037;SDS011;3047;42.600;23.470;2022-12-05T00:54:12;0.50;;;0.50;;
6037;SDS011;3047;42.600;23.470;2022-12-05T00:56:40;0.90;;;0.90;;
6037;SDS011;3047;42.600;23.470;2022-12-05T00:59:08;2.53;;;0.80;;
6037;SDS011;3047;42.600;23.470;2022-12-05T01:01:40;0.30;;;0.30;;
6037;SDS011;3047;42.600;23.470;2022-12-05T01:04:08;0.77;;;0.77;;
6037;SDS011;3047;42.600;23.470;2022-12-05T01:06:38;1.10;;;1.10;;
6037;SDS011;3047;42.600;23.470;2022-12-05T01:09:05;0.67;;;0.67;;
6037;SDS011;3047;42.600;23.470;2022-12-05T01:11:33;0.90;;;0.90;;
6037;SDS011;3047;42.600;23.470;2022-12-05T01:14:00;0.80;;;0.80;;
6037;SDS011;3047;42.600;23.470;2022-12-05T01:16:28;1.00;;;1.00;;
6037;SDS011;3047;42.600;23.470;2022-12-05T01:18:57;1.13;;;1.13;;
6037;SDS011;3047;42.600;23.470;2022-12-05T01:21:26;0.93;;;0.93;;
6037;SDS011;3047;42.600;23.470;2022-12-05T01:23:54;0.30;;;0.30;;
6037;SDS011;3047;42.600;23.470;2022-12-05T01:26:21;0.83;;;0.83;;
6037;SDS011;3047;42.600;23.470;2022-12-05T01:28:49;0.77;;;0.77;;
6037;SDS011;3047;42.600;23.470;2022-12-05T01:31:17;3.10;;;0.87;;
6037;SDS011;3047;42.600;23.470;2022-12-05T01:33:52;0.90;;;0.90;;
6037;SDS011;3047;42.600;23.470;2022-12-05T01:36:21;0.77;;;0.77;;
6037;SDS011;3047;42.600;23.470;2022-12-05T01:38:48;0.47;;;0.47;;
6037;SDS011;3047;42.600;23.470;2022-12-05T01:41:17;1.30;;;1.23;;
6037;SDS011;3047;42.600;23.470;2022-12-05T01:43:55;1.27;;;1.17;;
6037;SDS011;3047;42.600;23.470;2022-12-05T01:46:24;0.80;;;0.80;;
6037;SDS011;3047;42.600;23.470;2022-12-05T01:48:52;0.50;;;0.50;;
6037;SDS011;3047;42.600;23.470;2022-12-05T01:51:23;0.60;;;0.60;;
6037;SDS011;3047;42.600;23.470;2022-12-05T01:53:50;1.07;;;1.07;;
6037;SDS011;3047;42.600;23.470;2022-12-05T01:56:19;0.60;;;0.60;;
6037;SDS011;3047;42.600;23.470;2022-12-05T01:58:46;0.60;;;0.60;;
6037;SDS011;3047;42.600;23.470;2022-12-05T02:01:13;0.60;;;0.60;;
6037;SDS011;3047;42.600;23.470;2022-12-05T02:03:43;0.50;;;0.50;;
6037;SDS011;3047;42.600;23.470;2022-12-05T02:06:11;0.60;;;0.60;;
6037;SDS011;3047;42.600;23.470;2022-12-05T02:08:39;0.50;;;0.50;;
6037;SDS011;3047;42.600;23.470;2022-12-05T02:11:07;0.80;;;0.80;;
6037;SDS011;3047;42.600;23.470;2022-12-05T02:16:33;0.50;;;0.50;;
6037;SDS011;3047;42.600;23.470;2022-12-05T02:19:22;0.50;;;0.50;;
6037;SDS011;3047;42.600;23.470;2022-12-05T02:22:24;1.23;;;1.23;;
6037;SDS011;3047;42.600;23.470;2022-12-05T02:25:11;0.50;;;0.50;;
6037;SDS011;3047;42.600;23.470;2022-12-05T02:28:12;0.53;;;0.53;;
6037;SDS011;3047;42.600;23.470;2022-12-05T02:31:01;1.10;;;1.10;;
6037;SDS011;3047;42.600;23.470;2022-12-05T02:33:34;0.43;;;0.43;;
6037;SDS011;3047;42.600;23.470;2022-12-05T02:36:07;0.87;;;0.87;;
6037;SDS011;3047;42.600;23.470;2022-12-05T02:38:38;0.57;;;0.57;;
6037;SDS011;3047;42.600;23.470;2022-12-05T02:41:13;0.73;;;0.73;;
6037;SDS011;3047;42.600;23.470;2022-12-05T02:43:45;0.50;;;0.50;;
6037;SDS011;3047;42.600;23.470;2022-12-05T02:46:20;0.93;;;0.93;;
6037;SDS011;3047;42.600;23.470;2022-12-05T02:48:48;0.60;;;0.60;;
6037;SDS011;3047;42.600;23.470;2022-12-05T02:51:20;0.60;;;0.60;;
6037;SDS011;3047;42.600;23.470;2022-12-05T02:53:49;0.97;;;0.97;;
6037;SDS011;3047;42.600;23.470;2022-12-05T02:56:17;0.83;;;0.83;;
6037;SDS011;3047;42.600;23.470;2022-12-05T02:58:47;0.40;;;0.40;;
6037;SDS011;3047;42.600;23.470;2022-12-05T03:01:19;0.70;;;0.70;;
6037;SDS011;3047;42.600;23.470;2022-12-05T03:03:48;1.20;;;1.13;;
6037;SDS011;3047;42.600;23.470;2022-12-05T03:06:16;0.57;;;0.57;;
6037;SDS011;3047;42.600;23.470;2022-12-05T03:08:48;0.60;;;0.60;;
6037;SDS011;3047;42.600;23.470;2022-12-05T03:11:19;0.90;;;0.90;;
6037;SDS011;3047;42.600;23.470;2022-12-05T03:13:46;0.70;;;0.70;;
6037;SDS011;3047;42.600;23.470;2022-12-05T03:16:17;0.67;;;0.67;;
6037;SDS011;3047;42.600;23.470;2022-12-05T03:18:50;0.83;;;0.83;;
6037;SDS011;3047;42.600;23.470;2022-12-05T03:21:23;0.77;;;0.77;;
6037;SDS011;3047;42.600;23.470;2022-12-05T03:23:57;1.50;;;1.50;;
6037;SDS011;3047;42.600;23.470;2022-12-05T03:26:31;0.47;;;0.47;;
6037;SDS011;3047;42.600;23.470;2022-12-05T03:29:12;0.53;;;0.53;;
6037;SDS011;3047;42.600;23.470;2022-12-05T03:31:51;0.40;;;0.40;;
6037;SDS011;3047;42.600;23.470;2022-12-05T03:34:28;0.50;;;0.50;;
6037;SDS011;3047;42.600;23.470;2022-12-05T03:37:04;0.70;;;0.70;;
6037;SDS011;3047;42.600;23.470;2022-12-05T03:39:36;0.60;;;0.60;;
6037;SDS011;3047;42.600;23.470;2022-12-05T03:42:08;0.70;;;0.70;;
6037;SDS011;3047;42.600;23.470;2022-12-05T03:44:39;0.90;;;0.90;;
6037;SDS011;3047;42.600;23.470;2022-12-05T03:47:16;0.67;;;0.67;;
6037;SDS011;3047;42.600;23.470;2022-12-05T03:49:48;0.47;;;0.47;;
6037;SDS011;3047;42.600;23.470;2022-12-05T03:52:19;1.03;;;1.03;;
6037;SDS011;3047;42.600;23.470;2022-12-05T03:54:51;0.50;;;0.50;;
6037;SDS011;3047;42.600;23.470;2022-12-05T03:57:22;0.60;;;0.60;;
6037;SDS011;3047;42.600;23.470;2022-12-05T03:59:53;0.80;;;0.80;;
6037;SDS011;3047;42.600;23.470;2022-12-05T04:02:25;0.50;;;0.50;;
6037;SDS011;3047;42.600;23.470;2022-12-05T04:04:58;0.60;;;0.60;;
6037;SDS011;3047;42.600;23.470;2022-12-05T04:07:30;0.83;;;0.83;;
6037;SDS011;3047;42.600;23.470;2022-12-05T04:10:00;0.80;;;0.80;;
6037;SDS011;3047;42.600;23.470;2022-12-05T04:12:30;1.40;;;1.40;;
6037;SDS011;3047;42.600;23.470;2022-12-05T04:15:02;0.83;;;0.83;;
6037;SDS011;3047;42.600;23.470;2022-12-05T04:17:36;0.73;;;0.73;;
6037;SDS011;3047;42.600;23.470;2022-12-05T04:20:09;0.60;;;0.60;;
6037;SDS011;3047;42.600;23.470;2022-12-05T04:22:57;1.13;;;1.13;;
6037;SDS011;3047;42.600;23.470;2022-12-05T04:25:25;0.67;;;0.67;;
6037;SDS011;3047;42.600;23.470;2022-12-05T04:28:01;0.70;;;0.70;;
6037;SDS011;3047;42.600;23.470;2022-12-05T04:30:39;0.70;;;0.70;;
6037;SDS011;3047;42.600;23.470;2022-12-05T04:33:13;0.80;;;0.80;;
6037;SDS011;3047;42.600;23.470;2022-12-05T04:35:43;0.50;;;0.50;;
6037;SDS011;3047;42.600;23.470;2022-12-05T04:38:16;0.87;;;0.87;;
6037;SDS011;3047;42.600;23.470;2022-12-05T04:40:47;1.10;;;1.10;;
6037;SDS011;3047;42.600;23.470;2022-12-05T04:43:19;0.80;;;0.80;;
6037;SDS011;3047;42.600;23.470;2022-12-05T04:45:48;0.70;;;0.70;;
6037;SDS011;3047;42.600;23.470;2022-12-05T04:48:19;0.83;;;0.83;;
6037;SDS011;3047;42.600;23.470;2022-12-05T04:50:48;0.80;;;0.80;;
6037;SDS011;3047;42.600;23.470;2022-12-05T04:53:17;0.70;;;0.70;;
6037;SDS011;3047;42.600;23.470;2022-12-05T04:55:47;0.67;;;0.67;;
6037;SDS011;3047;42.600;23.470;2022-12-05T04:58:18;0.80;;;0.80;;
6037;SDS011;3047;42.600;23.470;2022-12-05T05:00:49;1.33;;;1.23;;
6037;SDS011;3047;42.600;23.470;2022-12-05T05:03:22;1.77;;;1.67;;
6037;SDS011;3047;42.600;23.470;2022-12-05T05:05:53;0.60;;;0.60;;
6037;SDS011;3047;42.600;23.470;2022-12-05T05:08:22;1.10;;;1.10;;
6037;SDS011;3047;42.600;23.470;2022-12-05T05:10:55;1.43;;;1.33;;
6037;SDS011;3047;42.600;23.470;2022-12-05T05:13:28;0.80;;;0.80;;
6037;SDS011;3047;42.600;23.470;2022-12-05T05:15:55;0.70;;;0.70;;
6037;SDS011;3047;42.600;23.470;2022-12-05T05:18:23;0.53;;;0.53;;
6037;SDS011;3047;42.600;23.470;2022-12-05T05:20:49;0.50;;;0.50;;
6037;SDS011;3047;42.600;23.470;2022-12-05T05:23:17;0.80;;;0.80;;
6037;SDS011;3047;42.600;23.470;2022-12-05T05:25:44;1.10;;;1.10;;
6037;SDS011;3047;42.600;23.470;2022-12-05T05:28:10;0.70;;;0.70;;
6037;SDS011;3047;42.600;23.470;2022-12-05T05:30:37;0.70;;;0.70;;
6037;SDS011;3047;42.600;23.470;2022-12-05T05:33:04;1.50;;;1.50;;
6037;SDS011;3047;42.600;23.470;2022-12-05T05:35:35;1.03;;;0.90;;
6037;SDS011;3047;42.600;23.470;2022-12-05T05:38:02;0.93;;;0.93;;
6037;SDS011;3047;42.600;23.470;2022-12-05T05:40:29;1.60;;;0.87;;
6037;SDS011;3047;42.600;23.470;2022-12-05T05:42:56;0.70;;;0.70;;
6037;SDS011;3047;42.600;23.470;2022-12-05T05:45:22;0.87;;;0.87;;
6037;SDS011;3047;42.600;23.470;2022-12-05T05:47:49;2.47;;;0.87;;
6037;SDS011;3047;42.600;23.470;2022-12-05T05:50:16;1.40;;;1.40;;
6037;SDS011;3047;42.600;23.470;2022-12-05T05:52:44;1.00;;;1.00;;
6037;SDS011;3047;42.600;23.470;2022-12-05T05:55:11;0.67;;;0.67;;
6037;SDS011;3047;42.600;23.470;2022-12-05T05:57:38;0.60;;;0.60;;
6037;SDS011;3047;42.600;23.470;2022-12-05T06:00:05;0.63;;;0.63;;
6037;SDS011;3047;42.600;23.470;2022-12-05T06:02:33;0.50;;;0.50;;
6037;SDS011;3047;42.600;23.470;2022-12-05T06:05:01;0.60;;;0.60;;
6037;SDS011;3047;42.600;23.470;2022-12-05T06:07:28;0.90;;;0.90;;
6037;SDS011;3047;42.600;23.470;2022-12-05T06:09:57;0.60;;;0.60;;
6037;SDS011;3047;42.600;23.470;2022-12-05T06:12:24;1.20;;;1.20;;
6037;SDS011;3047;42.600;23.470;2022-12-05T06:14:50;0.67;;;0.67;;
6037;SDS011;3047;42.600;23.470;2022-12-05T06:17:18;1.20;;;1.17;;
6037;SDS011;3047;42.600;23.470;2022-12-05T06:19:44;1.23;;;1.20;;
6037;SDS011;3047;42.600;23.470;2022-12-05T06:22:11;0.87;;;0.87;;
6037;SDS011;3047;42.600;23.470;2022-12-05T06:24:38;0.80;;;0.80;;
6037;SDS011;3047;42.600;23.470;2022-12-05T06:27:06;1.17;;;1.17;;
6037;SDS011;3047;42.600;23.470;2022-12-05T06:29:33;1.13;;;0.90;;
6037;SDS011;3047;42.600;23.470;2022-12-05T06:32:00;1.23;;;1.17;;
6037;SDS011;3047;42.600;23.470;2022-12-05T06:34:27;0.53;;;0.53;;
6037;SDS011;3047;42.600;23.470;2022-12-05T06:36:56;1.47;;;1.47;;
6037;SDS011;3047;42.600;23.470;2022-12-05T06:39:24;1.33;;;0.80;;
6037;SDS011;3047;42.600;23.470;2022-12-05T06:41:51;0.77;;;0.77;;
6037;SDS011;3047;42.600;23.470;2022-12-05T06:44:19;0.90;;;0.90;;
6037;SDS011;3047;42.600;23.470;2022-12-05T06:46:46;0.70;;;0.70;;
6037;SDS011;3047;42.600;23.470;2022-12-05T06:49:13;1.07;;;1.07;;
6037;SDS011;3047;42.600;23.470;2022-12-05T06:51:40;1.03;;;1.03;;
6037;SDS011;3047;42.600;23.470;2022-12-05T06:54:06;1.07;;;1.07;;
6037;SDS011;3047;42.600;23.470;2022-12-05T06:56:33;0.63;;;0.63;;
6037;SDS011;3047;42.600;23.470;2022-12-05T06:59:00;0.50;;;0.50;;
6037;SDS011;3047;42.600;23.470;2022-12-05T07:01:28;2.20;;;1.90;;
6037;SDS011;3047;42.600;23.470;2022-12-05T07:04:06;0.83;;;0.83;;
6037;SDS011;3047;42.600;23.470;2022-12-05T07:06:36;1.20;;;1.20;;
6037;SDS011;3047;42.600;23.470;2022-12-05T07:09:03;2.80;;;2.77;;
6037;SDS011;3047;42.600;23.470;2022-12-05T07:11:30;0.87;;;0.87;;
6037;SDS011;3047;42.600;23.470;2022-12-05T07:13:58;0.90;;;0.90;;
6037;SDS011;3047;42.600;23.470;2022-12-05T07:16:25;0.73;;;0.73;;
6037;SDS011;3047;42.600;23.470;2022-12-05T07:18:53;0.50;;;0.50;;
6037;SDS011;3047;42.600;23.470;2022-12-05T07:21:20;0.70;;;0.70;;
6037;SDS011;3047;42.600;23.470;2022-12-05T07:23:47;0.73;;;0.73;;
6037;SDS011;3047;42.600;23.470;2022-12-05T07:26:15;0.80;;;0.80;;
6037;SDS011;3047;42.600;23.470;2022-12-05T07:28:43;0.70;;;0.70;;
6037;SDS011;3047;42.600;23.470;2022-12-05T07:31:11;0.67;;;0.67;;
6037;SDS011;3047;42.600;23.470;2022-12-05T07:33:38;1.10;;;1.10;;
6037;SDS011;3047;42.600;23.470;2022-12-05T07:36:08;1.07;;;1.07;;
6037;SDS011;3047;42.600;23.470;2022-12-05T07:38:36;1.33;;;1.23;;
6037;SDS011;3047;42.600;23.470;2022-12-05T07:41:03;0.53;;;0.53;;
6037;SDS011;3047;42.600;23.470;2022-12-05T07:43:31;1.07;;;1.07;;
6037;SDS011;3047;42.600;23.470;2022-12-05T07:46:00;1.00;;;1.00;;
6037;SDS011;3047;42.600;23.470;2022-12-05T07:48:27;0.80;;;0.80;;
6037;SDS011;3047;42.600;23.470;2022-12-05T07:50:57;0.70;;;0.70;;
6037;SDS011;3047;42.600;23.470;2022-12-05T07:53:26;0.63;;;0.63;;
6037;SDS011;3047;42.600;23.470;2022-12-05T07:55:53;0.90;;;0.90;;
6037;SDS011;3047;42.600;23.470;2022-12-05T07:58:19;0.77;;;0.77;;
6037;SDS011;3047;42.600;23.470;2022-12-05T08:00:46;6.87;;;3.57;;
6037;SDS011;3047;42.600;23.470;2022-12-05T08:03:13;2.10;;;1.20;;
6037;SDS011;3047;42.600;23.470;2022-12-05T08:05:40;2.13;;;2.03;;
6037;SDS011;3047;42.600;23.470;2022-12-05T08:08:13;3.33;;;3.03;;
6037;SDS011;3047;42.600;23.470;2022-12-05T08:10:41;1.33;;;1.23;;
6037;SDS011;3047;42.600;23.470;2022-12-05T08:13:08;1.03;;;1.03;;
6037;SDS011;3047;42.600;23.470;2022-12-05T08:15:34;4.23;;;1.53;;
6037;SDS011;3047;42.600;23.470;2022-12-05T08:18:01;1.53;;;1.53;;
6037;SDS011;3047;42.600;23.470;2022-12-05T08:20:28;1.30;;;1.30;;
6037;SDS011;3047;42.600;23.470;2022-12-05T08:22:55;3.30;;;2.10;;
6037;SDS011;3047;42.600;23.470;2022-12-05T08:25:22;1.80;;;1.70;;
6037;SDS011;3047;42.600;23.470;2022-12-05T08:27:50;4.13;;;1.17;;
6037;SDS011;3047;42.600;23.470;2022-12-05T08:30:17;1.20;;;1.10;;
6037;SDS011;3047;42.600;23.470;2022-12-05T08:32:44;2.00;;;1.83;;
6037;SDS011;3047;42.600;23.470;2022-12-05T08:35:11;0.97;;;0.97;;
6037;SDS011;3047;42.600;23.470;2022-12-05T08:37:38;1.17;;;1.07;;
6037;SDS011;3047;42.600;23.470;2022-12-05T08:40:05;1.53;;;1.53;;
6037;SDS011;3047;42.600;23.470;2022-12-05T08:42:33;3.80;;;3.33;;
6037;SDS011;3047;42.600;23.470;2022-12-05T08:45:01;4.43;;;3.13;;
6037;SDS011;3047;42.600;23.470;2022-12-05T08:47:28;7.97;;;3.57;;
6037;SDS011;3047;42.600;23.470;2022-12-05T08:49:55;2.73;;;1.67;;
6037;SDS011;3047;42.600;23.470;2022-12-05T08:52:22;1.60;;;1.60;;
6037;SDS011;3047;42.600;23.470;2022-12-05T08:54:49;1.07;;;1.07;;
6037;SDS011;3047;42.600;23.470;2022-12-05T08:57:15;0.73;;;0.73;;
6037;SDS011;3047;42.600;23.470;2022-12-05T08:59:42;1.63;;;1.63;;
6037;SDS011;3047;42.600;23.470;2022-12-05T09:02:10;0.87;;;0.87;;
6037;SDS011;3047;42.600;23.470;2022-12-05T09:04:37;1.33;;;1.30;;
6037;SDS011;3047;42.600;23.470;2022-12-05T09:07:04;0.80;;;0.80;;
6037;SDS011;3047;42.600;23.470;2022-12-05T09:09:32;1.33;;;1.33;;
6037;SDS011;3047;42.600;23.470;2022-12-05T09:11:59;0.63;;;0.63;;
6037;SDS011;3047;42.600;23.470;2022-12-05T09:14:26;0.53;;;0.53;;
6037;SDS011;3047;42.600;23.470;2022-12-05T09:16:57;0.50;;;0.50;;
6037;SDS011;3047;42.600;23.470;2022-12-05T09:19:26;0.47;;;0.47;;
6037;SDS011;3047;42.600;23.470;2022-12-05T09:21:53;0.90;;;0.90;;
6037;SDS011;3047;42.600;23.470;2022-12-05T09:24:21;1.23;;;1.23;;
6037;SDS011;3047;42.600;23.470;2022-12-05T09:26:48;1.40;;;1.40;;
6037;SDS011;3047;42.600;23.470;2022-12-05T09:29:15;1.40;;;1.40;;
6037;SDS011;3047;42.600;23.470;2022-12-05T09:31:42;1.40;;;1.40;;
6037;SDS011;3047;42.600;23.470;2022-12-05T09:34:09;0.97;;;0.97;;
6037;SDS011;3047;42.600;23.470;2022-12-05T09:36:38;1.90;;;1.80;;
6037;SDS011;3047;42.600;23.470;2022-12-05T09:39:05;0.90;;;0.90;;
6037;SDS011;3047;42.600;23.470;2022-12-05T09:41:43;0.90;;;0.90;;
6037;SDS011;3047;42.600;23.470;2022-12-05T09:44:32;1.63;;;1.63;;
6037;SDS011;3047;42.600;23.470;2022-12-05T09:47:11;1.27;;;1.27;;
6037;SDS011;3047;42.600;23.470;2022-12-05T09:49:55;0.70;;;0.70;;
6037;SDS011;3047;42.600;23.470;2022-12-05T09:52:27;1.90;;;1.90;;
6037;SDS011;3047;42.600;23.470;2022-12-05T09:54:57;1.13;;;1.13;;
6037;SDS011;3047;42.600;23.470;2022-12-05T09:57:33;1.40;;;1.40;;
6037;SDS011;3047;42.600;23.470;2022-12-05T10:00:03;1.67;;;1.57;;
6037;SDS011;3047;42.600;23.470;2022-12-05T10:02:34;1.27;;;1.27;;
6037;SDS011;3047;42.600;23.470;2022-12-05T10:05:10;1.20;;;1.20;;
6037;SDS011;3047;42.600;23.470;2022-12-05T10:07:48;0.67;;;0.67;;
6037;SDS011;3047;42.600;23.470;2022-12-05T10:10:31;1.10;;;1.10;;
6037;SDS011;3047;42.600;23.470;2022-12-05T10:15:53;0.60;;;0.60;;
6037;SDS011;3047;42.600;23.470;2022-12-05T10:18:27;1.40;;;1.40;;
6037;SDS011;3047;42.600;23.470;2022-12-05T10:21:00;1.77;;;1.77;;
6037;SDS011;3047;42.600;23.470;2022-12-05T10:23:34;1.07;;;1.07;;
6037;SDS011;3047;42.600;23.470;2022-12-05T10:26:06;0.63;;;0.63;;
6037;SDS011;3047;42.600;23.470;2022-12-05T10:28:37;1.37;;;1.37;;
6037;SDS011;3047;42.600;23.470;2022-12-05T10:31:12;1.20;;;1.20;;
6037;SDS011;3047;42.600;23.470;2022-12-05T10:33:50;1.00;;;1.00;;
6037;SDS011;3047;42.600;23.470;2022-12-05T10:36:29;3.73;;;1.40;;
6037;SDS011;3047;42.600;23.470;2022-12-05T10:38:58;0.60;;;0.60;;
6037;SDS011;3047;42.600;23.470;2022-12-05T10:41:25;1.00;;;1.00;;
6037;SDS011;3047;42.600;23.470;2022-12-05T10:43:53;0.80;;;0.80;;
6037;SDS011;3047;42.600;23.470;2022-12-05T10:46:23;1.30;;;1.13;;
6037;SDS011;3047;42.600;23.470;2022-12-05T10:48:49;0.97;;;0.97;;
6037;SDS011;3047;42.600;23.470;2022-12-05T10:51:17;1.20;;;1.20;;
6037;SDS011;3047;42.600;23.470;2022-12-05T10:53:49;1.30;;;1.30;;
6037;SDS011;3047;42.600;23.470;2022-12-05T10:59:11;1.07;;;1.07;;
6037;SDS011;3047;42.600;23.470;2022-12-05T11:01:42;2.63;;;1.13;;
6037;SDS011;3047;42.600;23.470;2022-12-05T11:04:19;0.70;;;0.70;;
6037;SDS011;3047;42.600;23.470;2022-12-05T11:06:52;1.70;;;1.70;;
6037;SDS011;3047;42.600;23.470;2022-12-05T11:09:22;0.73;;;0.73;;
6037;SDS011;3047;42.600;23.470;2022-12-05T11:12:13;1.40;;;1.40;;
6037;SDS011;3047;42.600;23.470;2022-12-05T11:14:53;0.90;;;0.90;;
6037;SDS011;3047;42.600;23.470;2022-12-05T11:17:24;1.10;;;1.07;;
6037;SDS011;3047;42.600;23.470;2022-12-05T11:19:52;1.00;;;1.00;;
6037;SDS011;3047;42.600;23.470;2022-12-05T11:22:19;0.70;;;0.70;;
6037;SDS011;3047;42.600;23.470;2022-12-05T11:24:47;1.57;;;1.57;;
6037;SDS011;3047;42.600;23.470;2022-12-05T11:27:25;2.83;;;1.40;;
6037;SDS011;3047;42.600;23.470;2022-12-05T11:29:56;0.90;;;0.90;;
6037;SDS011;3047;42.600;23.470;2022-12-05T11:32:26;4.37;;;2.07;;
6037;SDS011;3047;42.600;23.470;2022-12-05T11:34:55;1.97;;;1.87;;
6037;SDS011;3047;42.600;23.470;2022-12-05T11:37:31;1.90;;;1.90;;
6037;SDS011;3047;42.600;23.470;2022-12-05T11:40:10;1.63;;;1.53;;
6037;SDS011;3047;42.600;23.470;2022-12-05T11:42:42;2.17;;;1.73;;
6037;SDS011;3047;42.600;23.470;2022-12-05T11:45:30;2.00;;;1.97;;
6037;SDS011;3047;42.600;23.470;2022-12-05T11:48:12;1.23;;;1.23;;
6037;SDS011;3047;42.600;23.470;2022-12-05T11:50:59;1.20;;;1.20;;
6037;SDS011;3047;42.600;23.470;2022-12-05T11:53:46;1.40;;;1.40;;
6037;SDS011;3047;42.600;23.470;2022-12-05T11:56:29;1.10;;;1.10;;
6037;SDS011;3047;42.600;23.470;2022-12-05T11:59:14;2.70;;;1.33;;
6037;SDS011;3047;42.600;23.470;2022-12-05T12:01:54;2.07;;;1.40;;
6037;SDS011;3047;42.600;23.470;2022-12-05T12:04:36;2.10;;;2.00;;
6037;SDS011;3047;42.600;23.470;2022-12-05T12:07:16;3.10;;;2.30;;
6037;SDS011;3047;42.600;23.470;2022-12-05T12:10:07;5.03;;;2.83;;
6037;SDS011;3047;42.600;23.470;2022-12-05T12:12:42;6.80;;;1.73;;
6037;SDS011;3047;42.600;23.470;2022-12-05T12:15:25;1.80;;;1.77;;
6037;SDS011;3047;42.600;23.470;2022-12-05T12:18:07;1.70;;;1.27;;
6037;SDS011;3047;42.600;23.470;2022-12-05T12:20:43;2.23;;;2.07;;
6037;SDS011;3047;42.600;23.470;2022-12-05T12:23:26;2.03;;;1.93;;
6037;SDS011;3047;42.600;23.470;2022-12-05T12:26:11;10.20;;;5.13;;
6037;SDS011;3047;42.600;23.470;2022-12-05T12:28:42;2.40;;;2.30;;
6037;SDS011;3047;42.600;23.470;2022-12-05T12:31:18;2.73;;;1.27;;
6037;SDS011;3047;42.600;23.470;2022-12-05T12:33:56;2.87;;;2.60;;
6037;SDS011;3047;42.600;23.470;2022-12-05T12:36:35;1.77;;;1.77;;
6037;SDS011;3047;42.600;23.470;2022-12-05T12:39:12;1.57;;;1.47;;
6037;SDS011;3047;42.600;23.470;2022-12-05T12:41:52;3.13;;;2.50;;
6037;SDS011;3047;42.600;23.470;2022-12-05T12:44:37;1.83;;;1.83;;
6037;SDS011;3047;42.600;23.470;2022-12-05T12:47:22;1.30;;;1.30;;
6037;SDS011;3047;42.600;23.470;2022-12-05T12:50:02;1.87;;;1.73;;
6037;SDS011;3047;42.600;23.470;2022-12-05T12:52:42;4.93;;;1.27;;
6037;SDS011;3047;42.600;23.470;2022-12-05T12:55:32;1.53;;;1.30;;
6037;SDS011;3047;42.600;23.470;2022-12-05T12:58:09;2.30;;;2.23;;
6037;SDS011;3047;42.600;23.470;2022-12-05T13:00:53;2.77;;;2.43;;
6037;SDS011;3047;42.600;23.470;2022-12-05T13:03:29;2.27;;;1.97;;
6037;SDS011;3047;42.600;23.470;2022-12-05T13:06:03;2.37;;;1.43;;
6037;SDS011;3047;42.600;23.470;2022-12-05T13:08:34;1.37;;;1.37;;
6037;SDS011;3047;42.600;23.470;2022-12-05T13:11:06;1.33;;;1.23;;
6037;SDS011;3047;42.600;23.470;2022-12-05T13:13:37;2.10;;;1.70;;
6037;SDS011;3047;42.600;23.470;2022-12-05T13:16:10;3.67;;;1.93;;
6037;SDS011;3047;42.600;23.470;2022-12-05T13:18:43;1.77;;;1.67;;
6037;SDS011;3047;42.600;23.470;2022-12-05T13:21:11;1.63;;;1.60;;
6037;SDS011;3047;42.600;23.470;2022-12-05T13:23:39;15.87;;;1.97;;
6037;SDS011;3047;42.600;23.470;2022-12-05T13:26:11;1.27;;;1.27;;
6037;SDS011;3047;42.600;23.470;2022-12-05T13:28:39;7.30;;;3.63;;
6037;SDS011;3047;42.600;23.470;2022-12-05T13:31:15;10.83;;;3.87;;
6037;SDS011;3047;42.600;23.470;2022-12-05T13:33:45;1.87;;;1.70;;
6037;SDS011;3047;42.600;23.470;2022-12-05T13:36:14;2.50;;;1.40;;
6037;SDS011;3047;42.600;23.470;2022-12-05T13:39:01;14.97;;;2.40;;
6037;SDS011;3047;42.600;23.470;2022-12-05T13:41:48;2.60;;;1.97;;
6037;SDS011;3047;42.600;23.470;2022-12-05T13:44:35;10.33;;;5.50;;
6037;SDS011;3047;42.600;23.470;2022-12-05T13:47:05;27.20;;;8.13;;
6037;SDS011;3047;42.600;23.470;2022-12-05T13:49:46;10.80;;;8.27;;
6037;SDS011;3047;42.600;23.470;2022-12-05T13:52:18;3.27;;;2.97;;
6037;SDS011;3047;42.600;23.470;2022-12-05T13:54:50;2.30;;;2.20;;
6037;SDS011;3047;42.600;23.470;2022-12-05T14:00:19;1.93;;;1.83;;
6037;SDS011;3047;42.600;23.470;2022-12-05T14:03:15;3.80;;;2.40;;
6037;SDS011;3047;42.600;23.470;2022-12-05T14:05:51;2.10;;;2.00;;
6037;SDS011;3047;42.600;23.470;2022-12-05T14:11:22;8.13;;;2.27;;
6037;SDS011;3047;42.600;23.470;2022-12-05T14:13:49;4.23;;;1.80;;
6037;SDS011;3047;42.600;23.470;2022-12-05T14:19:11;5.57;;;2.07;;
6037;SDS011;3047;42.600;23.470;2022-12-05T14:21:48;2.17;;;1.97;;
6037;SDS011;3047;42.600;23.470;2022-12-05T14:24:26;2.17;;;1.57;;
6037;SDS011;3047;42.600;23.470;2022-12-05T14:26:59;2.30;;;2.20;;
6037;SDS011;3047;42.600;23.470;2022-12-05T14:29:36;1.80;;;1.70;;
6037;SDS011;3047;42.600;23.470;2022-12-05T14:32:10;12.40;;;6.23;;
6037;SDS011;3047;42.600;23.470;2022-12-05T14:34:54;4.63;;;4.03;;
6037;SDS011;3047;42.600;23.470;2022-12-05T14:37:26;3.20;;;2.93;;
6037;SDS011;3047;42.600;23.470;2022-12-05T14:39:56;9.83;;;4.50;;
6037;SDS011;3047;42.600;23.470;2022-12-05T14:42:27;8.03;;;3.67;;
6037;SDS011;3047;42.600;23.470;2022-12-05T14:45:01;6.97;;;2.70;;
6037;SDS011;3047;42.600;23.470;2022-12-05T14:47:49;2.53;;;2.43;;
6037;SDS011;3047;42.600;23.470;2022-12-05T14:50:22;1.93;;;1.83;;
6037;SDS011;3047;42.600;23.470;2022-12-05T14:56:12;2.67;;;2.03;;
6037;SDS011;3047;42.600;23.470;2022-12-05T14:58:43;1.57;;;1.50;;
6037;SDS011;3047;42.600;23.470;2022-12-05T15:01:15;11.63;;;2.77;;
6037;SDS011;3047;42.600;23.470;2022-12-05T15:03:54;1.03;;;1.03;;
6037;SDS011;3047;42.600;23.470;2022-12-05T15:06:36;1.17;;;1.17;;
6037;SDS011;3047;42.600;23.470;2022-12-05T15:09:20;5.70;;;1.67;;
6037;SDS011;3047;42.600;23.470;2022-12-05T15:11:55;2.80;;;1.87;;
6037;SDS011;3047;42.600;23.470;2022-12-05T15:14:23;6.17;;;3.83;;
6037;SDS011;3047;42.600;23.470;2022-12-05T15:16:53;3.40;;;2.50;;
6037;SDS011;3047;42.600;23.470;2022-12-05T15:19:24;4.93;;;4.47;;
6037;SDS011;3047;42.600;23.470;2022-12-05T15:21:55;12.13;;;4.97;;
6037;SDS011;3047;42.600;23.470;2022-12-05T15:24:25;8.80;;;3.70;;
6037;SDS011;3047;42.600;23.470;2022-12-05T15:26:52;2.13;;;2.00;;
6037;SDS011;3047;42.600;23.470;2022-12-05T15:29:22;6.63;;;2.00;;
6037;SDS011;3047;42.600;23.470;2022-12-05T15:31:51;2.47;;;2.27;;
6037;SDS011;3047;42.600;23.470;2022-12-05T15:34:20;1.50;;;1.50;;
6037;SDS011;3047;42.600;23.470;2022-12-05T15:36:51;4.33;;;2.57;;
6037;SDS011;3047;42.600;23.470;2022-12-05T15:39:23;2.83;;;1.77;;
6037;SDS011;3047;42.600;23.470;2022-12-05T15:41:54;8.50;;;2.20;;
6037;SDS011;3047;42.600;23.470;2022-12-05T15:44:26;2.03;;;1.97;;
6037;SDS011;3047;42.600;23.470;2022-12-05T15:46:54;1.80;;;1.70;;